Time;durP1;ratioP1;P1;durP2;ratioP2;P2;SDS_P1;SDS_P2;PMS_P1;PMS_P2;Temp;Humidity;BMP_temperature;BMP_pressure;BME280_temperature;BME280_humidity;BME280_pressure;Samples;Min_cycle;Max_cycle;Signal;HPM_P1;HPM_P2
2022/09/26 00:01:20;;;;;;;8.43;2.40;;;10.30;99.90;;;;;;5061434;28;20027;-76
2022/09/26 00:03:51;;;;;;;5.45;2.15;;;10.30;99.90;;;;;;5059282;28;20036;-76
2022/09/26 00:06:18;;;;;;;4.88;2.00;;;10.30;99.90;;;;;;5065647;28;20090;-76
2022/09/26 00:08:45;;;;;;;5.50;2.13;;;10.30;99.90;;;;;;5065060;28;20039;-76
2022/09/26 00:11:14;;;;;;;7.32;2.55;;;10.30;99.90;;;;;;5061973;28;20032;-76
2022/09/26 00:13:41;;;;;;;4.03;2.00;;;10.30;99.90;;;;;;5047725;28;20416;-75
2022/09/26 00:16:08;;;;;;;3.95;2.00;;;10.30;99.90;;;;;;5063675;28;20028;-74
2022/09/26 00:18:34;;;;;;;8.00;2.50;;;10.30;99.90;;;;;;5059964;28;20025;-74
2022/09/26 00:21:12;;;;;;;7.45;2.50;;;10.30;99.90;;;;;;5066559;28;20024;-74
2022/09/26 00:23:38;;;;;;;5.88;2.83;;;10.30;99.90;;;;;;5065681;28;20029;-74
2022/09/26 00:26:05;;;;;;;6.97;2.83;;;10.30;99.90;;;;;;5059922;28;20043;-76
2022/09/26 00:28:31;;;;;;;7.35;2.90;;;10.30;99.90;;;;;;5057673;28;20025;-76
2022/09/26 00:31:02;;;;;;;7.03;2.25;;;10.30;99.90;;;;;;5063995;28;20033;-77
2022/09/26 00:33:28;;;;;;;4.00;2.55;;;10.30;99.90;;;;;;5066210;28;20055;-76
2022/09/26 00:35:54;;;;;;;9.00;2.55;;;10.30;99.90;;;;;;5062342;28;20644;-76
2022/09/26 00:38:21;;;;;;;4.85;2.38;;;10.30;99.90;;;;;;5063110;28;20020;-76
2022/09/26 00:40:47;;;;;;;6.35;2.60;;;10.30;99.90;;;;;;5063637;28;20095;-74
2022/09/26 00:43:27;;;;;;;6.25;2.72;;;10.30;99.90;;;;;;5066737;28;20024;-74
2022/09/26 00:45:57;;;;;;;7.40;2.30;;;10.30;99.90;;;;;;5064414;28;20108;-74
2022/09/26 00:48:23;;;;;;;4.65;2.22;;;10.30;99.90;;;;;;5060030;28;20048;-76
2022/09/26 00:50:49;;;;;;;5.03;2.72;;;10.20;99.90;;;;;;5064259;28;20052;-74
2022/09/26 00:53:19;;;;;;;5.80;3.22;;;10.30;99.90;;;;;;5062945;28;20056;-75
2022/09/26 00:55:51;;;;;;;7.30;2.17;;;10.30;99.90;;;;;;5068116;28;20040;-76
2022/09/26 00:58:27;;;;;;;5.53;2.25;;;10.20;99.90;;;;;;5070660;28;20686;-76
2022/09/26 01:00:54;;;;;;;4.75;2.67;;;10.20;99.90;;;;;;5069793;28;20028;-76
2022/09/26 01:03:21;;;;;;;6.47;2.42;;;10.30;99.90;;;;;;5069666;28;20115;-77
2022/09/26 01:05:47;;;;;;;6.00;2.47;;;10.20;99.90;;;;;;5070284;28;20056;-77
2022/09/26 01:08:16;;;;;;;8.50;2.67;;;10.20;99.90;;;;;;5071178;28;20028;-76
2022/09/26 01:10:44;;;;;;;5.72;2.25;;;10.20;99.90;;;;;;5071318;28;20121;-76
2022/09/26 01:13:10;;;;;;;5.13;2.25;;;10.30;99.90;;;;;;5068075;28;20373;-76
2022/09/26 01:15:36;;;;;;;6.38;2.33;;;10.30;99.90;;;;;;5070127;28;20043;-76
2022/09/26 01:18:02;;;;;;;4.30;2.55;;;10.30;99.90;;;;;;5067370;28;20626;-75
2022/09/26 01:20:49;;;;;;;3.30;2.22;;;10.30;99.90;;;;;;5067914;28;20031;-76
2022/09/26 01:23:33;;;;;;;7.30;2.40;;;10.20;99.90;;;;;;5064725;28;20028;-75
2022/09/26 01:26:36;;;;;;;4.85;2.65;;;10.30;99.90;;;;;;5070467;28;20027;-76
2022/09/26 01:29:20;;;;;;;5.70;2.42;;;10.30;99.90;;;;;;5068173;28;20050;-76
2022/09/26 01:35:25;;;;;;;5.90;2.88;;;10.30;99.90;;;;;;5066350;28;20055;-76
2022/09/26 01:38:18;;;;;;;6.28;2.30;;;10.30;99.90;;;;;;5081699;28;20033;-76
2022/09/26 01:40:52;;;;;;;5.75;2.60;;;10.30;99.90;;;;;;5064187;28;20052;-76
2022/09/26 01:43:18;;;;;;;7.53;3.20;;;10.30;99.90;;;;;;5066994;28;20103;-75
2022/09/26 01:45:57;;;;;;;5.28;2.38;;;10.30;99.90;;;;;;5070201;28;20051;-75
2022/09/26 01:48:51;;;;;;;5.93;2.58;;;10.30;99.90;;;;;;5082150;28;20036;-75
2022/09/26 01:51:31;;;;;;;4.85;1.73;;;10.30;99.90;;;;;;5060676;28;20436;-76
2022/09/26 01:54:05;;;;;;;4.90;2.13;;;10.30;99.90;;;;;;5067570;28;20512;-76
2022/09/26 01:56:35;;;;;;;6.20;2.47;;;10.40;99.90;;;;;;5071055;28;20025;-76
2022/09/26 01:59:16;;;;;;;4.50;2.07;;;10.40;99.90;;;;;;5066588;28;20604;-76
2022/09/26 02:01:43;;;;;;;4.85;1.90;;;10.40;99.90;;;;;;5062681;28;20318;-76
2022/09/26 02:04:15;;;;;;;6.45;2.45;;;10.40;99.90;;;;;;5066225;28;20024;-76
2022/09/26 02:06:56;;;;;;;5.50;2.28;;;10.40;99.90;;;;;;5068972;28;20040;-76
2022/09/26 02:09:37;;;;;;;5.57;2.17;;;10.40;99.90;;;;;;5067637;28;20032;-76
2022/09/26 02:12:07;;;;;;;5.20;2.42;;;10.40;99.90;;;;;;5071124;28;20107;-76
2022/09/26 02:14:36;;;;;;;3.92;2.33;;;10.40;99.90;;;;;;5059074;28;20024;-75
2022/09/26 02:17:26;;;;;;;7.25;2.92;;;10.40;99.90;;;;;;5064313;28;20134;-76
2022/09/26 02:20:01;;;;;;;6.80;2.25;;;10.40;99.90;;;;;;5066595;28;20056;-75
2022/09/26 02:22:33;;;;;;;4.38;2.20;;;10.40;99.90;;;;;;5066950;28;20036;-76
2022/09/26 02:24:58;;;;;;;;;;;10.40;99.90;;;;;;5069164;28;20029;-76
2022/09/26 02:27:26;;;;;;;5.93;2.25;;;10.40;99.90;;;;;;5062846;28;19919;-76
2022/09/26 02:29:51;;;;;;;8.25;2.30;;;10.40;99.90;;;;;;5063566;28;20040;-76
2022/09/26 02:32:23;;;;;;;3.80;1.95;;;10.40;99.90;;;;;;5064792;28;20036;-76
2022/09/26 02:34:49;;;;;;;6.95;2.53;;;10.40;99.90;;;;;;5064650;28;20037;-75
2022/09/26 02:37:17;;;;;;;4.93;2.70;;;10.40;99.90;;;;;;5066451;28;20043;-75
2022/09/26 02:39:45;;;;;;;5.13;2.13;;;10.40;99.90;;;;;;5065818;28;20056;-76
2022/09/26 02:42:32;;;;;;;7.18;2.13;;;10.40;99.90;;;;;;5066958;28;20029;-76
2022/09/26 02:45:00;;;;;;;7.70;2.60;;;10.40;99.90;;;;;;5069483;28;20059;-76
2022/09/26 02:47:44;;;;;;;4.07;2.40;;;10.40;99.90;;;;;;5065210;28;20101;-76
2022/09/26 02:50:10;;;;;;;3.72;1.60;;;10.40;99.90;;;;;;5056471;28;20055;-76
2022/09/26 02:53:09;;;;;;;6.18;2.50;;;10.40;99.90;;;;;;5065401;28;20111;-75
2022/09/26 02:55:51;;;;;;;5.20;2.33;;;10.50;99.90;;;;;;5072171;28;20083;-75
2022/09/26 02:58:21;;;;;;;5.85;2.40;;;10.40;99.90;;;;;;5065097;28;20104;-76
2022/09/26 03:00:52;;;;;;;4.37;2.30;;;10.40;99.90;;;;;;5067704;28;20029;-76
2022/09/26 03:03:25;;;;;;;7.32;2.30;;;10.40;99.90;;;;;;5066149;28;21184;-76
2022/09/26 03:05:56;;;;;;;5.47;2.75;;;10.50;99.90;;;;;;5065234;28;20043;-76
2022/09/26 03:08:25;;;;;;;6.53;2.13;;;10.40;99.90;;;;;;5063977;28;20036;-76
2022/09/26 03:10:53;;;;;;;5.97;2.08;;;10.50;99.90;;;;;;5063104;28;20055;-76
2022/09/26 03:13:20;;;;;;;6.05;2.17;;;10.50;99.90;;;;;;5059137;28;20037;-76
2022/09/26 03:15:52;;;;;;;6.30;2.33;;;10.50;99.90;;;;;;5066457;28;20028;-76
2022/09/26 03:18:30;;;;;;;4.22;2.28;;;10.50;99.90;;;;;;5066798;28;20029;-76
2022/09/26 03:20:55;;;;;;;7.28;3.10;;;10.50;99.90;;;;;;5064183;28;20043;-76
2022/09/26 03:23:23;;;;;;;4.57;2.50;;;10.50;99.90;;;;;;5069361;28;20370;-75
2022/09/26 03:26:00;;;;;;;4.28;2.53;;;10.50;99.90;;;;;;5070032;28;20043;-76
2022/09/26 03:28:27;;;;;;;4.47;2.50;;;10.50;99.90;;;;;;5066467;28;20089;-76
2022/09/26 03:30:53;;;;;;;4.40;2.33;;;10.50;99.90;;;;;;5066094;28;20082;-75
2022/09/26 03:33:18;;;;;;;5.63;2.65;;;10.50;99.90;;;;;;5062461;28;20033;-76
2022/09/26 03:35:44;;;;;;;10.77;2.67;;;10.50;99.90;;;;;;5066266;28;20088;-75
2022/09/26 03:38:10;;;;;;;6.75;2.90;;;10.50;99.90;;;;;;5064284;28;20027;-76
2022/09/26 03:40:36;;;;;;;9.93;3.50;;;10.50;99.90;;;;;;5067772;28;20016;-76
2022/09/26 03:43:02;;;;;;;5.43;2.55;;;10.50;99.90;;;;;;5066148;28;20029;-76
2022/09/26 03:45:28;;;;;;;5.65;2.50;;;10.50;99.90;;;;;;5066877;28;20514;-76
2022/09/26 03:47:55;;;;;;;3.55;2.25;;;10.40;99.90;;;;;;5064989;28;20032;-76
2022/09/26 03:50:21;;;;;;;4.15;2.70;;;10.50;99.90;;;;;;5065369;28;20033;-76
2022/09/26 03:52:47;;;;;;;6.45;2.50;;;10.50;99.90;;;;;;5066033;28;20020;-75
2022/09/26 03:55:13;;;;;;;5.18;2.50;;;10.40;99.90;;;;;;5065612;28;20024;-76
2022/09/26 03:57:39;;;;;;;5.63;2.65;;;10.40;99.90;;;;;;5068375;28;20025;-76
2022/09/26 04:00:09;;;;;;;6.85;2.40;;;10.50;99.90;;;;;;5064729;28;20032;-76
2022/09/26 04:02:35;;;;;;;7.57;2.90;;;10.40;99.90;;;;;;5060890;28;20557;-76
2022/09/26 04:05:00;;;;;;;6.38;2.53;;;10.40;99.90;;;;;;5063557;28;20029;-76
2022/09/26 04:07:26;;;;;;;7.20;2.35;;;10.40;99.90;;;;;;5064425;28;20064;-76
2022/09/26 04:09:52;;;;;;;8.32;3.00;;;10.40;99.90;;;;;;5063894;28;20500;-75
2022/09/26 04:12:19;;;;;;;4.47;2.67;;;10.40;99.90;;;;;;5067371;28;20492;-76
2022/09/26 04:14:45;;;;;;;4.53;2.35;;;10.40;99.90;;;;;;5065823;28;20028;-76
2022/09/26 04:17:12;;;;;;;4.72;2.90;;;10.40;99.90;;;;;;5063399;28;20381;-76
2022/09/26 04:19:37;;;;;;;5.32;2.70;;;10.40;99.90;;;;;;5070280;28;20027;-76
2022/09/26 04:22:07;;;;;;;4.88;2.50;;;10.40;99.90;;;;;;5067644;28;20024;-76
2022/09/26 04:24:33;;;;;;;8.35;2.47;;;10.40;99.90;;;;;;5065166;28;20592;-76
2022/09/26 04:26:59;;;;;;;5.53;2.40;;;10.40;99.90;;;;;;5061932;28;20124;-75
2022/09/26 04:29:26;;;;;;;5.90;2.60;;;10.40;99.90;;;;;;5065213;28;20028;-76
2022/09/26 04:31:52;;;;;;;5.82;2.88;;;10.40;99.90;;;;;;5060600;28;20461;-75
2022/09/26 04:34:19;;;;;;;7.78;2.97;;;10.40;99.90;;;;;;5060994;28;20032;-75
2022/09/26 04:36:45;;;;;;;7.95;2.58;;;10.50;99.90;;;;;;5060545;28;20544;-76
2022/09/26 04:39:10;;;;;;;5.35;2.65;;;10.50;99.90;;;;;;5061352;28;20078;-76
2022/09/26 04:41:37;;;;;;;5.40;2.97;;;10.50;99.90;;;;;;5065432;28;20025;-75
2022/09/26 04:44:03;;;;;;;6.03;3.13;;;10.50;99.90;;;;;;5063804;28;20064;-76
2022/09/26 04:46:29;;;;;;;4.78;2.65;;;10.50;99.90;;;;;;5064647;28;20052;-75
2022/09/26 04:48:57;;;;;;;7.75;2.53;;;10.50;99.90;;;;;;5057897;28;20032;-76
2022/09/26 04:51:24;;;;;;;4.30;2.38;;;10.50;99.90;;;;;;5059897;28;20032;-76
2022/09/26 04:53:50;;;;;;;6.82;3.25;;;10.50;99.90;;;;;;5056840;28;20052;-75
2022/09/26 04:56:18;;;;;;;4.90;2.45;;;10.50;99.90;;;;;;5060048;28;20044;-75
2022/09/26 04:58:45;;;;;;;5.55;2.85;;;10.50;99.90;;;;;;5064037;28;20488;-75
2022/09/26 05:01:14;;;;;;;8.27;2.85;;;10.50;99.90;;;;;;5061377;28;20036;-75
2022/09/26 05:03:40;;;;;;;5.97;2.78;;;10.50;99.90;;;;;;5063890;28;20101;-75
2022/09/26 05:06:08;;;;;;;4.97;2.83;;;10.50;99.90;;;;;;5062121;28;20029;-75
2022/09/26 05:08:36;;;;;;;5.97;3.17;;;10.50;99.90;;;;;;5055772;28;20115;-75
2022/09/26 05:11:02;;;;;;;6.75;2.78;;;10.50;99.90;;;;;;5064868;28;20031;-75
2022/09/26 05:13:28;;;;;;;4.00;2.83;;;10.50;99.90;;;;;;5064106;28;20392;-75
2022/09/26 05:15:54;;;;;;;6.10;2.67;;;10.50;99.90;;;;;;5065699;28;20036;-75
2022/09/26 05:18:24;;;;;;;4.78;2.88;;;10.50;99.90;;;;;;5061156;28;20025;-75
2022/09/26 05:20:51;;;;;;;5.03;2.80;;;10.50;99.90;;;;;;5062429;28;20104;-77
2022/09/26 05:26:20;;;;;;;4.97;2.67;;;10.60;99.90;;;;;;5055068;28;20044;-75
2022/09/26 05:29:03;;;;;;;3.35;2.75;;;10.60;99.90;;;;;;5071165;28;20025;-75
2022/09/26 05:31:32;;;;;;;5.35;2.97;;;10.60;99.90;;;;;;5063052;28;20029;-75
2022/09/26 05:33:58;;;;;;;4.80;2.40;;;10.60;99.90;;;;;;5062456;28;20035;-75
2022/09/26 05:36:25;;;;;;;4.68;2.83;;;10.60;99.90;;;;;;5071043;28;20036;-75
2022/09/26 05:38:51;;;;;;;7.40;2.88;;;10.60;99.90;;;;;;5068240;28;20048;-75
2022/09/26 05:41:18;;;;;;;4.22;3.00;;;10.60;99.90;;;;;;5075814;28;20033;-75
2022/09/26 05:43:44;;;;;;;5.63;3.10;;;10.60;99.90;;;;;;5065159;28;20437;-74
2022/09/26 05:46:11;;;;;;;9.88;2.72;;;10.70;99.90;;;;;;5064105;28;20028;-75
2022/09/26 05:48:38;;;;;;;7.22;2.42;;;10.70;99.90;;;;;;5068362;28;20103;-75
2022/09/26 05:51:13;;;;;;;5.53;2.47;;;10.70;99.90;;;;;;5068108;28;20622;-75
2022/09/26 05:53:40;;;;;;;7.53;3.05;;;10.70;99.90;;;;;;5064199;28;20069;-76
2022/09/26 05:56:07;;;;;;;6.68;2.95;;;10.70;99.90;;;;;;5068317;28;20434;-75
2022/09/26 05:58:34;;;;;;;5.50;2.63;;;10.70;99.90;;;;;;5064017;28;20021;-75
2022/09/26 06:01:09;;;;;;;7.72;2.47;;;10.70;99.90;;;;;;5064705;28;20020;-75
2022/09/26 06:03:35;;;;;;;5.97;2.30;;;10.80;99.90;;;;;;5066450;28;20545;-75
2022/09/26 06:06:03;;;;;;;10.07;3.63;;;10.80;99.90;;;;;;5064385;28;20044;-75
2022/09/26 06:08:30;;;;;;;6.60;3.17;;;10.80;99.90;;;;;;5069025;28;20150;-76
2022/09/26 06:11:28;;;;;;;6.10;2.92;;;10.80;99.90;;;;;;5068938;28;20649;-76
2022/09/26 06:13:54;;;;;;;4.57;2.63;;;10.90;99.90;;;;;;5062281;28;20116;-76
2022/09/26 06:16:20;;;;;;;5.80;3.10;;;10.90;99.90;;;;;;5062521;28;20024;-76
2022/09/26 06:18:48;;;;;;;4.85;2.65;;;10.90;99.90;;;;;;5061993;28;20029;-75
2022/09/26 06:21:16;;;;;;;4.93;2.40;;;11.00;99.90;;;;;;5058588;28;20025;-76
2022/09/26 06:23:42;;;;;;;7.13;3.20;;;11.00;99.90;;;;;;5060214;28;20032;-77
2022/09/26 06:26:12;;;;;;;5.15;2.80;;;11.00;99.90;;;;;;5057084;28;20046;-77
2022/09/26 06:28:39;;;;;;;;;;;11.10;99.90;;;;;;5063711;28;20549;-76
2022/09/26 06:31:11;;;;;;;5.95;2.95;;;11.10;99.90;;;;;;5062742;28;19988;-77
2022/09/26 06:33:37;;;;;;;5.95;2.70;;;11.10;99.90;;;;;;5068473;28;20369;-75
2022/09/26 06:36:08;;;;;;;6.07;2.70;;;11.10;99.90;;;;;;5064970;28;20035;-76
2022/09/26 06:38:34;;;;;;;4.93;3.10;;;11.10;99.90;;;;;;5060490;28;20023;-76
2022/09/26 06:41:00;;;;;;;7.03;3.05;;;11.10;99.90;;;;;;5063204;28;20381;-76
2022/09/26 06:43:26;;;;;;;7.95;2.80;;;11.10;99.90;;;;;;5064869;28;20024;-76
2022/09/26 06:45:52;;;;;;;8.65;2.92;;;11.10;99.90;;;;;;5065828;28;20135;-76
2022/09/26 06:48:21;;;;;;;4.10;2.63;;;11.20;99.90;;;;;;5061376;28;20115;-75
2022/09/26 06:50:59;;;;;;;8.07;2.70;;;11.20;99.90;;;;;;5064140;28;20043;-75
2022/09/26 06:53:26;;;;;;;7.25;2.83;;;11.20;99.90;;;;;;5058401;28;20110;-75
2022/09/26 06:55:52;;;;;;;8.40;3.35;;;11.30;99.90;;;;;;5058256;28;20040;-75
2022/09/26 06:58:18;;;;;;;4.57;2.60;;;11.30;99.90;;;;;;5064491;28;20488;-75
2022/09/26 07:00:43;;;;;;;6.38;3.70;;;11.30;99.90;;;;;;5060357;28;20039;-77
2022/09/26 07:03:10;;;;;;;7.25;2.90;;;11.30;99.90;;;;;;5059965;28;20028;-75
2022/09/26 07:05:36;;;;;;;6.18;2.80;;;11.40;99.90;;;;;;5062297;28;20303;-75
2022/09/26 07:08:02;;;;;;;4.68;2.60;;;11.40;99.90;;;;;;5065238;28;20021;-76
2022/09/26 07:10:29;;;;;;;7.55;2.70;;;11.40;99.90;;;;;;5059927;28;20370;-75
2022/09/26 07:13:04;;;;;;;5.07;2.80;;;11.40;99.90;;;;;;5063463;28;20133;-75
2022/09/26 07:15:32;;;;;;;6.65;2.70;;;11.50;99.90;;;;;;5060812;28;20056;-76
2022/09/26 07:18:02;;;;;;;8.13;3.17;;;11.50;99.90;;;;;;5059798;28;20238;-76
2022/09/26 07:20:33;;;;;;;6.93;3.47;;;11.50;99.90;;;;;;5052217;28;20093;-77
2022/09/26 07:23:03;;;;;;;4.10;2.70;;;11.60;99.90;;;;;;5062894;28;20036;-76
2022/09/26 07:25:32;;;;;;;4.07;2.72;;;11.60;99.90;;;;;;5062159;28;20021;-75
2022/09/26 07:27:58;;;;;;;5.78;2.30;;;11.60;99.90;;;;;;5058149;28;20029;-77
2022/09/26 07:30:25;;;;;;;7.63;2.92;;;11.50;99.90;;;;;;5061046;28;20107;-75
2022/09/26 07:32:51;;;;;;;5.95;2.92;;;11.50;99.90;;;;;;5056791;28;20051;-76
2022/09/26 07:35:16;;;;;;;4.82;2.13;;;11.50;99.90;;;;;;5064844;28;20029;-76
2022/09/26 07:37:43;;;;;;;5.43;2.65;;;11.50;99.90;;;;;;5056090;28;20388;-75
2022/09/26 07:40:10;;;;;;;5.80;3.22;;;11.50;99.90;;;;;;5065026;28;20027;-76
2022/09/26 07:42:37;;;;;;;13.60;3.38;;;11.50;99.90;;;;;;5068522;28;20048;-75
2022/09/26 07:45:04;;;;;;;4.18;2.78;;;11.50;99.90;;;;;;5066818;28;20029;-75
2022/09/26 07:50:18;;;;;;;8.45;3.50;;;11.50;99.90;;;;;;5061186;28;20606;-75
2022/09/26 07:52:46;;;;;;;6.85;3.47;;;11.60;99.90;;;;;;5070178;28;20103;-76
2022/09/26 07:55:15;;;;;;;5.70;3.40;;;11.60;99.90;;;;;;5067551;28;20400;-75
2022/09/26 07:57:41;;;;;;;6.72;3.35;;;11.60;99.90;;;;;;5060859;28;20507;-75
2022/09/26 08:00:13;;;;;;;6.82;3.30;;;11.60;99.90;;;;;;5075265;28;20025;-74
2022/09/26 08:02:41;;;;;;;6.45;3.30;;;11.60;99.90;;;;;;5075388;28;20024;-77
2022/09/26 08:05:08;;;;;;;6.80;3.33;;;11.60;99.90;;;;;;5069130;28;20085;-75
2022/09/26 08:07:35;;;;;;;7.28;3.70;;;11.60;99.90;;;;;;5065196;28;20035;-76
2022/09/26 08:10:04;;;;;;;8.07;3.70;;;11.70;99.90;;;;;;5066720;28;20452;-76
2022/09/26 08:12:37;;;;;;;7.45;3.67;;;11.70;99.90;;;;;;5061963;28;20052;-77
2022/09/26 08:15:07;;;;;;;5.65;3.60;;;11.70;99.90;;;;;;5054210;28;20045;-76
2022/09/26 08:17:33;;;;;;;12.93;4.18;;;11.80;99.90;;;;;;5082583;28;20025;-79
2022/09/26 08:20:00;;;;;;;7.88;3.92;;;11.80;99.90;;;;;;5069825;28;20025;-77
2022/09/26 08:22:26;;;;;;;8.80;3.85;;;11.80;99.90;;;;;;5068669;28;20035;-78
2022/09/26 08:24:53;;;;;;;7.45;3.90;;;11.80;99.90;;;;;;5071391;28;20028;-79
2022/09/26 08:27:21;;;;;;;9.02;4.80;;;11.90;99.90;;;;;;5071048;28;20044;-76
2022/09/26 08:29:50;;;;;;;9.95;4.47;;;11.90;99.90;;;;;;5065684;28;20202;-77
2022/09/26 08:32:18;;;;;;;6.68;3.88;;;11.90;99.90;;;;;;5061263;28;20025;-78
2022/09/26 08:34:44;;;;;;;9.40;4.90;;;12.00;99.90;;;;;;5073476;28;20033;-79
2022/09/26 08:37:10;;;;;;;7.35;5.07;;;12.00;99.90;;;;;;5071050;28;20396;-77
2022/09/26 08:39:36;;;;;;;15.27;5.30;;;12.10;99.90;;;;;;5070556;28;20024;-78
2022/09/26 08:42:34;;;;;;;9.73;5.10;;;12.10;99.90;;;;;;5069959;28;20029;-78
2022/09/26 08:48:32;;;;;;;8.27;4.68;;;12.20;99.90;;;;;;5069468;28;20021;-79
2022/09/26 08:51:11;;;;;;;8.00;4.68;;;12.30;99.90;;;;;;5062740;28;20519;-79
2022/09/26 08:53:56;;;;;;;9.52;5.30;;;12.30;99.90;;;;;;5070816;28;20163;-76
2022/09/26 08:56:30;;;;;;;10.38;5.20;;;12.40;99.90;;;;;;5068780;28;20032;-78
2022/09/26 08:58:58;;;;;;;9.63;4.57;;;12.40;99.90;;;;;;5073985;28;20107;-78
2022/09/26 09:01:28;;;;;;;7.05;4.63;;;12.50;99.90;;;;;;5067306;28;20151;-79
2022/09/26 09:04:14;;;;;;;12.43;5.72;;;12.50;99.90;;;;;;5062043;28;20116;-78
2022/09/26 09:06:40;;;;;;;9.73;5.57;;;12.50;99.90;;;;;;5065036;28;20040;-79
2022/09/26 09:09:06;;;;;;;8.70;5.40;;;12.50;99.90;;;;;;5058404;28;20035;-75
2022/09/26 09:11:37;;;;;;;9.55;5.43;;;12.50;99.90;;;;;;5066307;28;20103;-75
2022/09/26 09:14:03;;;;;;;8.45;5.03;;;12.60;99.90;;;;;;5060683;28;20029;-74
2022/09/26 09:16:50;;;;;;;8.30;5.53;;;12.60;99.90;;;;;;5069925;28;20104;-75
2022/09/26 09:19:51;;;;;;;10.30;5.22;;;12.80;99.90;;;;;;5067285;28;20377;-75
2022/09/26 09:22:29;;;;;;;;;;;13.00;99.90;;;;;;5067411;28;20066;-75
2022/09/26 09:24:59;;;;;;;8.88;5.07;;;13.10;99.90;;;;;;5086241;28;19927;-78
2022/09/26 09:27:30;;;;;;;12.35;5.70;;;13.10;99.90;;;;;;5066834;28;20037;-75
2022/09/26 09:30:08;;;;;;;10.43;5.18;;;13.10;99.90;;;;;;5069352;28;20028;-75
2022/09/26 09:32:50;;;;;;;11.27;5.20;;;13.10;99.90;;;;;;5069630;28;20033;-75
2022/09/26 09:35:23;;;;;;;8.20;5.20;;;13.10;99.90;;;;;;5069306;28;20052;-75
2022/09/26 09:37:52;;;;;;;9.05;5.03;;;13.10;99.90;;;;;;5063681;28;20024;-76
2022/09/26 09:40:52;;;;;;;9.50;4.70;;;13.00;99.90;;;;;;5081662;28;20036;-75
2022/09/26 09:43:36;;;;;;;7.82;4.55;;;13.00;99.90;;;;;;5040549;28;20062;-75
2022/09/26 09:46:09;;;;;;;8.02;4.03;;;12.90;99.90;;;;;;5068724;28;20032;-75
2022/09/26 09:48:34;;;;;;;9.68;4.45;;;12.90;99.90;;;;;;5068855;28;20063;-75
2022/09/26 09:51:44;;;;;;;6.22;4.18;;;12.90;99.90;;;;;;5069009;28;20492;-75
2022/09/26 09:54:45;;;;;;;11.88;4.70;;;12.90;99.90;;;;;;5054048;28;20048;-74
2022/09/26 09:57:30;;;;;;;7.18;4.10;;;13.00;99.90;;;;;;5063728;28;20084;-74
2022/09/26 10:00:07;;;;;;;8.55;4.57;;;13.00;99.90;;;;;;5066029;28;20496;-74
2022/09/26 10:02:42;;;;;;;4.47;3.25;;;12.90;99.90;;;;;;5063884;28;20033;-74
2022/09/26 10:05:43;;;;;;;7.53;3.45;;;13.00;99.90;;;;;;5069930;28;20024;-74
2022/09/26 10:08:16;;;;;;;8.20;3.20;;;13.00;99.90;;;;;;5069195;28;20024;-76
2022/09/26 10:10:57;;;;;;;3.85;2.83;;;13.00;99.90;;;;;;5067073;28;20021;-75
2022/09/26 10:13:25;;;;;;;5.35;3.00;;;13.10;99.90;;;;;;5068246;28;20021;-75
2022/09/26 10:16:04;;;;;;;7.45;3.60;;;13.20;99.90;;;;;;5072001;28;20028;-79
2022/09/26 10:18:55;;;;;;;6.72;2.90;;;13.20;99.90;;;;;;5052561;28;20088;-76
2022/09/26 10:21:33;;;;;;;7.10;3.20;;;13.20;99.90;;;;;;5092689;28;20158;-76
2022/09/26 10:24:01;;;;;;;8.65;3.03;;;13.20;99.90;;;;;;5072406;28;20032;-76
2022/09/26 10:26:33;;;;;;;7.28;2.92;;;13.20;99.90;;;;;;5071440;28;20083;-75
2022/09/26 10:29:07;;;;;;;7.07;3.17;;;13.30;99.90;;;;;;5059956;28;20033;-75
2022/09/26 10:31:41;;;;;;;4.82;2.75;;;13.40;99.90;;;;;;5063668;28;20412;-75
2022/09/26 10:34:26;;;;;;;10.02;3.13;;;13.50;99.90;;;;;;5068200;28;20025;-76
2022/09/26 10:36:53;;;;;;;6.32;3.05;;;13.40;99.90;;;;;;5065187;28;20055;-73
2022/09/26 10:42:20;;;;;;;5.20;3.13;;;13.50;99.90;;;;;;5065677;28;20036;-71
2022/09/26 10:44:49;;;;;;;5.43;2.60;;;13.60;99.90;;;;;;5068255;28;20113;-71
2022/09/26 10:47:22;;;;;;;6.40;2.40;;;13.70;99.90;;;;;;5066263;28;20524;-73
2022/09/26 10:49:54;;;;;;;4.75;2.88;;;13.70;99.90;;;;;;5066876;28;20443;-69
2022/09/26 10:52:35;;;;;;;6.20;2.85;;;13.80;99.90;;;;;;5067675;28;20089;-73
2022/09/26 10:55:11;;;;;;;6.57;3.00;;;13.80;99.90;;;;;;5063201;28;20677;-74
2022/09/26 10:57:44;;;;;;;7.53;2.60;;;13.80;99.90;;;;;;5064115;28;20028;-75
2022/09/26 11:00:36;;;;;;;5.85;2.60;;;13.80;99.90;;;;;;5068611;28;20021;-77
2022/09/26 11:03:12;;;;;;;6.07;3.42;;;13.70;99.90;;;;;;5067483;28;20020;-77
2022/09/26 11:05:56;;;;;;;7.53;2.30;;;13.70;99.90;;;;;;5061972;28;20028;-77
2022/09/26 11:08:36;;;;;;;7.93;2.70;;;13.70;99.90;;;;;;5049054;28;20055;-76
2022/09/26 11:11:13;;;;;;;4.72;2.78;;;13.70;99.90;;;;;;5065153;28;20037;-77
2022/09/26 11:13:48;;;;;;;11.20;2.70;;;13.80;99.90;;;;;;5064330;28;20024;-76
2022/09/26 11:16:19;;;;;;;4.35;2.33;;;13.80;99.90;;;;;;5064750;28;20484;-77
2022/09/26 11:19:04;;;;;;;8.27;2.70;;;13.70;99.90;;;;;;5064535;28;20560;-77
2022/09/26 11:22:29;;;;;;;6.75;2.67;;;13.70;99.90;;;;;;5055758;28;20024;-76
2022/09/26 11:25:27;;;;;;;6.85;3.20;;;13.60;99.90;;;;;;4995035;28;20041;-78
2022/09/26 11:28:15;;;;;;;6.13;2.88;;;13.50;99.90;;;;;;4989217;28;20053;-75
2022/09/26 11:31:08;;;;;;;11.05;4.22;;;13.30;99.90;;;;;;5066957;28;20031;-76
2022/09/26 11:33:54;;;;;;;5.00;2.63;;;13.50;99.90;;;;;;5061616;28;20078;-75
2022/09/26 11:36:45;;;;;;;6.50;3.33;;;13.40;99.90;;;;;;5058837;28;20070;-75
2022/09/26 11:39:41;;;;;;;5.18;3.08;;;13.20;99.90;;;;;;5070529;28;20027;-75
2022/09/26 11:42:38;;;;;;;4.47;3.20;;;13.00;99.90;;;;;;5064841;28;20093;-75
2022/09/26 11:45:48;;;;;;;6.55;3.42;;;12.90;99.90;;;;;;5067363;28;20016;-77
2022/09/26 11:48:33;;;;;;;6.43;3.33;;;12.90;99.90;;;;;;5068419;28;20055;-76
2022/09/26 11:51:09;;;;;;;9.30;3.60;;;12.90;99.90;;;;;;5064701;28;20499;-76
2022/09/26 11:53:39;;;;;;;6.60;3.92;;;12.90;99.90;;;;;;5061532;28;20127;-76
2022/09/26 11:56:23;;;;;;;6.18;4.10;;;12.80;99.90;;;;;;5068623;28;20040;-75
2022/09/26 11:58:58;;;;;;;7.57;3.65;;;12.80;99.90;;;;;;5068157;28;20178;-76
2022/09/26 12:01:54;;;;;;;6.75;4.15;;;12.70;99.90;;;;;;5066489;28;20028;-76
2022/09/26 12:04:34;;;;;;;6.80;3.90;;;12.60;99.90;;;;;;5065568;28;20029;-75
2022/09/26 12:07:18;;;;;;;8.50;4.10;;;12.50;99.90;;;;;;5063893;28;20097;-75
2022/09/26 12:10:11;;;;;;;7.43;4.30;;;12.50;99.90;;;;;;5061353;28;20550;-75
2022/09/26 12:13:00;;;;;;;6.32;4.20;;;12.40;99.90;;;;;;5065695;28;20048;-75
2022/09/26 12:15:43;;;;;;;790.60;425.40;;;12.40;99.90;;;;;;5064856;28;20028;-75
2022/09/26 12:18:19;;;;;;;97.72;58.22;;;12.40;99.90;;;;;;5062523;28;20081;-75
2022/09/26 12:21:11;;;;;;;17.42;9.82;;;12.40;99.90;;;;;;5063674;28;20448;-75
2022/09/26 12:23:45;;;;;;;8.00;5.18;;;12.40;99.90;;;;;;5061663;28;20040;-75
2022/09/26 12:26:20;;;;;;;8.13;4.55;;;12.40;99.90;;;;;;5064449;28;20063;-73
2022/09/26 12:28:54;;;;;;;6.95;4.30;;;12.40;99.90;;;;;;5061007;28;20035;-74
2022/09/26 12:31:47;;;;;;;7.80;4.15;;;12.50;99.90;;;;;;5064789;28;20025;-75
2022/09/26 12:35:02;;;;;;;9.50;4.13;;;12.50;99.90;;;;;;5065812;28;20837;-75
2022/09/26 12:38:00;;;;;;;7.40;3.75;;;12.50;99.90;;;;;;5050327;28;20074;-74
2022/09/26 12:40:37;;;;;;;10.38;3.90;;;12.60;99.90;;;;;;5068145;28;20068;-73
2022/09/26 12:43:06;;;;;;;7.43;3.60;;;12.60;99.90;;;;;;5086975;28;20013;-76
2022/09/26 12:46:24;;;;;;;7.60;3.53;;;12.60;99.90;;;;;;5070448;28;20070;-75
2022/09/26 12:49:17;;;;;;;5.72;3.85;;;12.60;99.90;;;;;;5029600;28;20041;-74
2022/09/26 12:51:52;;;;;;;8.35;4.00;;;12.60;99.90;;;;;;5026073;28;20047;-75
2022/09/26 12:54:26;;;;;;;9.43;4.30;;;12.60;99.90;;;;;;5051781;28;20041;-75
2022/09/26 12:57:10;;;;;;;6.07;3.60;;;12.60;99.90;;;;;;5067830;28;20033;-75
2022/09/26 12:59:42;;;;;;;6.22;3.40;;;12.70;99.90;;;;;;5067676;28;20059;-76
2022/09/26 13:02:16;;;;;;;7.07;3.65;;;12.70;99.90;;;;;;5073335;28;20412;-76
2022/09/26 13:05:02;;;;;;;9.73;3.60;;;12.70;99.90;;;;;;5069263;28;20031;-76
2022/09/26 13:08:03;;;;;;;8.57;3.88;;;12.70;99.90;;;;;;5068933;28;20044;-76
2022/09/26 13:10:54;;;;;;;5.20;3.20;;;12.70;99.90;;;;;;5042881;28;20067;-75
2022/09/26 13:13:37;;;;;;;6.90;3.50;;;12.70;99.90;;;;;;5066646;28;20036;-75
2022/09/26 13:16:03;;;;;;;8.35;3.97;;;12.70;99.90;;;;;;5073251;28;20530;-76
2022/09/26 13:18:42;;;;;;;6.93;3.10;;;12.70;99.90;;;;;;5070747;28;20029;-78
2022/09/26 13:21:12;;;;;;;7.45;3.33;;;12.70;99.90;;;;;;5071947;28;20515;-76
2022/09/26 13:23:44;;;;;;;6.70;2.97;;;12.80;99.90;;;;;;5070352;28;20476;-76
2022/09/26 13:26:15;;;;;;;4.88;3.20;;;12.80;99.90;;;;;;5067836;28;20040;-75
2022/09/26 13:29:04;;;;;;;7.57;3.17;;;12.80;99.90;;;;;;5065540;28;20028;-76
2022/09/26 13:31:39;;;;;;;5.57;3.00;;;12.80;99.90;;;;;;5070377;28;20080;-82
2022/09/26 13:34:17;;;;;;;4.47;2.80;;;12.80;99.90;;;;;;5068214;28;20028;-76
2022/09/26 13:36:43;;;;;;;7.07;3.05;;;12.90;99.90;;;;;;5066189;28;20025;-76